createdAt,value
2016-04-20T08:28:13.972Z,47.42
2016-04-20T08:29:14.052Z,46.87
2016-04-20T08:30:14.164Z,46.37
2016-04-20T08:31:14.089Z,46.75
2016-04-20T08:32:14.107Z,46.18
2016-04-20T08:33:14.126Z,45.79
2016-04-20T08:34:14.144Z,45.72
2016-04-20T08:35:14.177Z,45.72
2016-04-20T08:36:14.196Z,46.2
2016-04-20T08:37:14.199Z,46.2
2016-04-20T08:38:14.217Z,45.72
2016-04-20T08:39:14.251Z,45.63
2016-04-20T08:40:14.285Z,46.11
2016-04-20T08:41:14.288Z,45.92
2016-04-20T08:42:14.321Z,46.2
2016-04-20T08:43:14.778Z,46.2
2016-04-20T08:44:14.343Z,46.2
2016-04-20T08:45:14.377Z,46.2
2016-04-20T08:46:14.395Z,45.63
2016-04-20T08:47:14.398Z,45.25
2016-04-20T08:48:14.432Z,44.96
2016-04-20T08:49:14.451Z,45.06
2016-04-20T08:50:14.468Z,45.15
2016-04-20T08:51:14.487Z,45.25
2016-04-20T08:52:14.505Z,45.72
2016-04-20T08:53:14.539Z,45.72
2016-04-20T08:54:14.073Z,45.63
2016-04-20T08:55:14.575Z,45.63
2016-04-20T08:56:14.594Z,45.34
2016-04-20T08:57:14.611Z,45.15
2016-04-20T08:58:14.631Z,44.77
2016-04-20T08:59:14.649Z,44.29
2016-04-20T09:00:14.667Z,44.2
2016-04-20T09:01:14.686Z,43.74
2016-04-20T09:02:14.719Z,43.26
2016-04-20T09:03:14.722Z,43.82
2016-04-20T09:04:14.740Z,44.02
2016-04-20T09:05:14.758Z,43.65
2016-04-20T09:06:14.792Z,43.74
2016-04-20T09:07:14.983Z,43.74
2016-04-20T09:08:14.829Z,43.65
2016-04-20T09:09:14.848Z,43.74
2016-04-20T09:10:14.944Z,43.65
2016-04-20T09:11:14.994Z,43.55
2016-04-20T09:12:14.918Z,43.93
2016-04-20T09:13:14.937Z,43.74
2016-04-20T09:14:14.955Z,43.65
2016-04-20T09:15:14.973Z,43.26
2016-04-20T09:16:14.992Z,43.65
2016-04-20T09:17:15.009Z,43.46
2016-04-20T09:18:14.872Z,43.26
2016-04-20T09:19:15.062Z,43.93
2016-04-20T09:20:15.081Z,43.65
2016-04-20T09:21:15.114Z,43.29
2016-04-20T09:22:15.111Z,43
2016-04-20T09:23:15.135Z,43
2016-04-20T09:24:15.153Z,43
2016-04-20T09:25:15.171Z,43.29
2016-04-20T09:26:15.205Z,43.19
2016-04-20T09:27:15.223Z,43.29
2016-04-20T09:28:15.241Z,43
2016-04-20T09:29:15.260Z,43.09
2016-04-20T09:30:15.279Z,43.57
2016-04-20T09:31:15.312Z,43.19
2016-04-20T09:32:15.315Z,42.43
2016-04-20T09:33:15.332Z,42.52
2016-04-20T09:34:15.367Z,42.52
2016-04-20T09:35:15.385Z,42.14
2016-04-20T09:36:15.497Z,41.97
2016-04-20T09:37:15.437Z,41.97
2016-04-20T09:38:15.455Z,41.78
2016-04-20T09:39:15.474Z,41.78
2016-04-20T09:40:15.492Z,41.87
2016-04-20T09:41:15.511Z,41.87
2016-04-20T09:42:15.529Z,41.78
2016-04-20T09:43:15.547Z,41.49
2016-04-20T09:44:15.581Z,41.58
2016-04-20T09:45:15.599Z,40.72
2016-04-20T09:46:15.617Z,40.92
2016-04-20T09:47:15.636Z,41.01
2016-04-20T09:48:15.655Z,41.01
2016-04-20T09:49:15.689Z,40.84
2016-04-20T09:50:15.707Z,40.94
2016-04-20T09:51:15.725Z,40.84
2016-04-20T09:52:15.743Z,40.55
2016-04-20T09:53:15.777Z,39.79
2016-04-20T09:54:15.780Z,39.79
2016-04-20T09:55:15.799Z,39.31
2016-04-20T09:56:15.832Z,39.4
2016-04-20T09:57:15.851Z,40.08
2016-04-20T09:58:15.869Z,39.79
2016-04-20T09:59:15.887Z,39.5
2016-04-20T10:00:15.921Z,39.12
2016-04-20T10:01:15.939Z,39.12
2016-04-20T10:02:15.957Z,39.22
2016-04-20T10:03:15.976Z,38.74
2016-04-20T10:04:16.009Z,38.54
2016-04-20T10:05:16.028Z,38.17
2016-04-20T10:06:16.046Z,38.17
2016-04-20T10:07:16.064Z,38.07
2016-04-20T10:08:16.098Z,38.17
2016-04-20T10:09:16.101Z,38.07
2016-04-20T10:10:16.136Z,38.09
2016-04-20T10:11:16.154Z,38.28
2016-04-20T10:12:16.172Z,37.99
2016-04-20T10:13:16.206Z,38.09
2016-04-20T10:14:16.209Z,37.99
2016-04-20T10:15:16.243Z,37.41
2016-04-20T10:16:16.261Z,37.32
2016-04-20T10:17:16.280Z,37.41
2016-04-20T10:18:16.314Z,37.23
2016-04-20T10:19:16.331Z,37.32
2016-04-20T10:20:16.350Z,37.23
2016-04-20T10:21:16.369Z,37.13
2016-04-20T10:22:16.386Z,37.23
2016-04-20T10:23:16.421Z,37.41
2016-04-20T10:24:16.439Z,37.23
2016-04-20T10:25:16.457Z,36.27
2016-04-20T10:26:16.475Z,36.29
2016-04-20T10:27:16.509Z,35.81
2016-04-20T10:28:16.527Z,36.29
2016-04-20T10:29:16.546Z,35.81
2016-04-20T10:30:16.580Z,36.1
2016-04-20T10:31:16.598Z,36.1
2016-04-20T10:32:16.616Z,36.1
2016-04-20T10:33:16.635Z,35.33
2016-04-20T10:34:16.654Z,35.42
2016-04-20T10:35:16.688Z,35.52
2016-04-20T10:36:16.706Z,35.24
2016-04-20T10:37:16.723Z,35.24
2016-04-20T10:38:16.742Z,34.75
2016-04-20T10:39:16.760Z,34.74
2016-04-20T10:40:16.794Z,35.22
2016-04-20T10:41:16.813Z,35.5
2016-04-20T10:42:16.831Z,36.08
2016-04-20T10:43:16.865Z,36.47
2016-04-20T10:44:16.883Z,36.67
2016-04-20T10:45:16.901Z,36.47
2016-04-20T10:46:16.936Z,36.1
2016-04-20T10:47:16.939Z,36.47
2016-04-20T10:48:16.972Z,36.47
2016-04-20T10:49:16.991Z,35.81
2016-04-20T10:50:17.071Z,35.71
2016-04-20T10:51:17.027Z,35.16
2016-04-20T10:52:17.061Z,35.06
2016-04-20T10:53:17.079Z,34.77
2016-04-20T10:54:17.097Z,34.67
2016-04-20T10:55:17.132Z,34.48
2016-04-20T10:56:17.150Z,34.58
2016-04-20T10:57:17.168Z,33.91
2016-04-20T10:58:17.186Z,34.1
2016-04-20T10:59:17.220Z,34.2
2016-04-20T11:00:17.238Z,34
2016-04-20T11:01:17.288Z,33.81
2016-04-20T11:02:17.276Z,33.53
2016-04-20T11:03:17.310Z,33.72
2016-04-20T11:04:17.343Z,33.72
2016-04-20T11:05:17.362Z,33.72
2016-04-20T11:06:17.379Z,33.53
2016-04-20T11:07:17.398Z,33.62
2016-04-20T11:08:17.417Z,33.53
2016-04-20T11:09:17.451Z,33.33
2016-04-20T11:10:17.468Z,33.43
2016-04-20T11:11:17.487Z,33.53
2016-04-20T11:12:17.506Z,33.54
2016-04-20T11:13:17.540Z,34.02
2016-04-20T11:14:17.558Z,34.02
2016-04-20T11:15:17.576Z,34.22
2016-04-20T11:16:17.594Z,34.79
2016-04-20T11:17:17.628Z,34.41
2016-04-20T11:18:17.647Z,34.79
2016-04-20T11:19:17.665Z,34.79
2016-04-20T11:20:17.731Z,34.5
2016-04-20T11:21:17.717Z,34.12
2016-04-20T11:22:17.767Z,33.83
2016-04-20T11:23:17.957Z,34.22
2016-04-20T11:24:17.803Z,33.73
2016-04-20T11:25:17.806Z,33.45
2016-04-20T11:26:17.933Z,33.83
2016-04-20T11:27:17.858Z,33.64
2016-04-20T11:28:17.891Z,33.73
2016-04-20T11:29:17.910Z,33.54
2016-04-20T11:30:17.929Z,33.45
2016-04-20T11:31:17.947Z,33.45
2016-04-20T11:32:17.982Z,33.47
2016-04-20T11:33:18.000Z,33.37
2016-04-20T11:34:18.018Z,33.56
2016-04-20T11:35:18.052Z,33.65
2016-04-20T11:36:18.070Z,33.84
2016-04-20T11:37:18.120Z,33.56
2016-04-20T11:38:18.123Z,32.89
2016-04-20T11:39:18.141Z,32.6
2016-04-20T11:40:18.159Z,32.41
2016-04-20T11:41:18.177Z,32.23
2016-04-20T11:42:18.195Z,31.85
2016-04-20T11:43:18.229Z,32.33
2016-04-20T11:44:18.247Z,31.46
2016-04-20T11:45:18.267Z,31.75
2016-04-20T11:46:18.300Z,31.56
2016-04-20T11:47:18.317Z,31.56
2016-04-20T11:48:18.337Z,31.85
2016-04-20T11:49:18.448Z,31.85
2016-04-20T11:50:18.405Z,31.56
2016-04-20T11:51:18.408Z,31.75
2016-04-20T11:52:18.441Z,31.75
2016-04-20T11:53:18.475Z,31.66
2016-04-20T11:54:18.494Z,31.66
2016-04-20T11:55:18.511Z,32.14
2016-04-20T11:56:18.530Z,32.23
2016-04-20T11:57:18.548Z,32.62
2016-04-20T11:58:18.582Z,32.62
2016-04-20T11:59:18.601Z,33.01
2016-04-20T12:00:18.619Z,32.42
2016-04-20T12:01:18.653Z,32.25
2016-04-20T12:02:18.671Z,32.15
2016-04-20T12:03:18.704Z,32.06
2016-04-20T12:04:18.770Z,31.67
2016-04-20T12:05:18.805Z,31.58
2016-04-20T12:06:18.807Z,31.58
2016-04-20T12:07:18.857Z,31.96
2016-04-20T12:08:18.812Z,31.48
2016-04-20T12:09:18.831Z,31.2
2016-04-20T12:10:18.864Z,31.21
2016-04-20T12:11:18.898Z,31.3
2016-04-20T12:12:18.918Z,31.21
2016-04-20T12:13:18.935Z,31.3
2016-04-20T12:14:19.079Z,31.11
2016-04-20T12:15:18.987Z,31.21
2016-04-20T12:16:19.005Z,31.03
2016-04-20T12:17:19.149Z,31.21
2016-04-20T12:18:19.152Z,31.23
2016-04-20T12:19:19.092Z,31.23
2016-04-20T12:20:19.111Z,30.84
2016-04-20T12:21:19.128Z,31.13
2016-04-20T12:22:19.162Z,30.84
2016-04-20T12:23:19.181Z,31.41
2016-04-20T12:24:19.199Z,31.23
2016-04-20T12:25:19.233Z,30.95
2016-04-20T12:26:19.266Z,31.15
2016-04-20T12:27:19.285Z,31.24
2016-04-20T12:28:19.382Z,31.15
2016-04-20T12:29:19.322Z,31.24
2016-04-20T12:30:19.355Z,31.05
2016-04-20T12:31:19.453Z,30.95
2016-04-20T12:32:19.563Z,31.05
2016-04-20T12:33:19.426Z,30.95
2016-04-20T12:34:19.476Z,30.95
2016-04-20T12:35:19.479Z,30.68
2016-04-20T12:36:19.607Z,30.19
2016-04-20T12:37:19.532Z,30.68
2016-04-20T12:38:19.549Z,30.1
2016-04-20T12:39:19.583Z,30.19
2016-04-20T12:40:19.602Z,30.21
2016-04-20T12:41:19.636Z,30.21
2016-04-20T12:42:19.654Z,30.4
2016-04-20T12:43:19.672Z,30.21
2016-04-20T12:44:19.800Z,30.11
2016-04-20T12:45:19.724Z,30.11
2016-04-20T12:46:19.774Z,30.11
2016-04-20T12:47:19.793Z,30.04
2016-04-20T12:48:19.811Z,29.65
2016-04-20T12:49:19.829Z,29.84
2016-04-20T12:50:19.847Z,29.84
2016-04-20T12:51:19.881Z,29.55
2016-04-20T12:52:19.915Z,29.46
2016-04-20T12:53:19.933Z,29.36
2016-04-20T12:54:19.952Z,29.27
2016-04-20T12:55:19.986Z,29.46
2016-04-20T12:56:20.004Z,29.17
2016-04-20T12:57:20.038Z,29.27
2016-04-20T12:58:20.056Z,29.38
2016-04-20T12:59:20.091Z,29.38
2016-04-20T13:00:20.108Z,29.38
2016-04-20T13:01:20.141Z,29.18
2016-04-20T13:02:20.160Z,28.89
2016-04-20T13:03:20.180Z,28.89
2016-04-20T13:04:20.213Z,28.99
2016-04-20T13:05:20.232Z,29.18
2016-04-20T13:06:20.265Z,29.18
2016-04-20T13:07:20.299Z,29.18
2016-04-20T13:08:20.318Z,28.8
2016-04-20T13:09:20.352Z,29.18
2016-04-20T13:10:20.385Z,29.18
2016-04-20T13:11:20.387Z,28.8
2016-04-20T13:12:20.421Z,29.18
2016-04-20T13:13:20.534Z,29.18
2016-04-20T13:14:20.568Z,28.8
2016-04-20T13:15:20.587Z,29.18
2016-04-20T13:16:20.526Z,28.61
2016-04-20T13:17:20.592Z,28.61
2016-04-20T13:18:19.860Z,28.7
2016-04-20T13:19:20.597Z,28.89
2016-04-20T13:20:20.631Z,28.8
2016-04-20T13:21:20.650Z,28.7
2016-04-20T13:22:20.683Z,28.91
2016-04-20T13:23:20.764Z,28.7
2016-04-20T13:24:20.782Z,28.89
2016-04-20T13:25:20.769Z,28.91
2016-04-20T13:26:20.788Z,28.62
2016-04-20T13:27:20.806Z,28.42
2016-04-20T13:28:20.840Z,28.62
2016-04-20T13:29:20.858Z,28.42
2016-04-20T13:30:20.892Z,28.42
2016-04-20T13:31:21.019Z,28.23
2016-04-20T13:32:20.945Z,27.75
2016-04-20T13:33:20.963Z,27.85
2016-04-20T13:34:20.997Z,27.85
2016-04-20T13:35:21.015Z,27.56
2016-04-20T13:36:21.049Z,27.08
2016-04-20T13:37:21.067Z,27.09
2016-04-20T13:38:21.102Z,27
2016-04-20T13:39:21.119Z,26.7
2016-04-20T13:40:21.154Z,27.38
2016-04-20T13:41:21.172Z,27
2016-04-20T13:42:21.206Z,27
2016-04-20T13:43:21.239Z,27
2016-04-20T13:44:21.258Z,26.8
2016-04-20T13:45:21.276Z,26.9
2016-04-20T13:46:21.310Z,26.62
2016-04-20T13:47:21.344Z,26.81
2016-04-20T13:48:21.379Z,26.81
2016-04-20T13:49:21.490Z,27.01
2016-04-20T13:50:21.524Z,27.11
2016-04-20T13:51:21.526Z,27.01
2016-04-20T13:52:21.468Z,27.39
2016-04-20T13:53:21.501Z,27.01
2016-04-20T13:54:21.519Z,27.01
2016-04-20T13:55:21.553Z,27.01
2016-04-20T13:56:21.572Z,27.29
2016-04-20T13:57:21.605Z,27.11
2016-04-20T13:58:21.625Z,26.04
2016-04-20T13:59:21.658Z,26.53
2016-04-20T14:00:21.692Z,26.04
2016-04-20T14:01:21.711Z,26.14
2016-04-20T14:02:21.744Z,25.95
2016-04-20T14:03:21.763Z,26.25
2016-04-20T14:04:21.796Z,26.15
2016-04-20T14:05:21.814Z,26.06
2016-04-20T14:06:21.848Z,25.96
2016-04-20T14:07:21.883Z,26.15
2016-04-20T14:08:21.916Z,26.64
2016-04-20T14:09:21.935Z,26.43
2016-04-20T14:10:22.032Z,26.33
2016-04-20T14:11:21.987Z,26.23
2016-04-20T14:12:22.005Z,26.43
2016-04-20T14:13:22.040Z,26.54
2016-04-20T14:14:22.058Z,26.14
2016-04-20T14:15:22.091Z,26.23
2016-04-20T14:16:22.125Z,26.33
2016-04-20T14:17:22.143Z,26.04
2016-04-20T14:18:22.178Z,26.23
2016-04-20T14:19:22.196Z,26.53
2016-04-20T14:20:22.324Z,26.53
2016-04-20T14:21:22.264Z,26.62
2016-04-20T14:22:22.283Z,26.81
2016-04-20T14:23:22.317Z,26.91
2016-04-20T14:24:22.335Z,27.01
2016-04-20T14:25:22.369Z,26.91
2016-04-20T14:26:22.388Z,27.11
2016-04-20T14:27:22.421Z,27.09
2016-04-20T14:28:22.440Z,27.39
2016-04-20T14:29:22.474Z,27.11
2016-04-20T14:30:22.493Z,27.38
2016-04-20T14:31:22.589Z,27
2016-04-20T14:32:22.591Z,27.19
2016-04-20T14:33:22.594Z,27
2016-04-20T14:34:22.612Z,27.19
2016-04-20T14:35:22.740Z,27
2016-04-20T14:36:22.805Z,27.28
2016-04-20T14:37:22.792Z,27.19
2016-04-20T14:38:22.795Z,27.28
2016-04-20T14:39:22.798Z,27.19
2016-04-20T14:40:22.816Z,27.09
2016-04-20T14:41:22.819Z,26.51
2016-04-20T14:42:22.822Z,26.9
2016-04-20T14:43:22.871Z,26.9
2016-04-20T14:44:22.874Z,26.98
2016-04-20T14:45:22.908Z,26.51
2016-04-20T14:46:22.942Z,26.8
2016-04-20T14:47:22.960Z,26.22
2016-04-20T14:48:22.994Z,26.22
2016-04-20T14:49:23.013Z,26.51
2016-04-20T14:50:23.046Z,25.93
2016-04-20T14:51:23.111Z,25.66
2016-04-20T14:52:23.098Z,25.85
2016-04-20T14:53:23.132Z,26.33
2016-04-20T14:54:23.151Z,26.04
2016-04-20T14:55:23.185Z,26.04
2016-04-20T14:56:23.218Z,26.04
2016-04-20T14:57:23.237Z,25.67
2016-04-20T14:58:23.255Z,25.76
2016-04-20T14:59:23.290Z,25.57
2016-04-20T15:00:23.432Z,25.57
2016-04-20T15:01:23.435Z,24.99
2016-04-20T15:02:23.468Z,25.09
2016-04-20T15:03:23.471Z,25.09
2016-04-20T15:04:23.473Z,25.09
2016-04-20T15:05:23.492Z,25.2
2016-04-20T15:06:23.604Z,25.01
2016-04-20T15:07:23.654Z,25.1
2016-04-20T15:08:23.642Z,25.1
2016-04-20T15:09:23.660Z,24.52
2016-04-20T15:10:23.647Z,24.81
2016-04-20T15:11:23.665Z,24.82
2016-04-20T15:12:23.667Z,24.72
2016-04-20T15:13:23.686Z,24.63
2016-04-20T15:14:23.704Z,24.92
2016-04-20T15:15:23.722Z,24.73
2016-04-20T15:16:23.756Z,24.54
2016-04-20T15:17:23.790Z,24.73
2016-04-20T15:18:23.902Z,24.44
2016-04-20T15:19:23.843Z,24.63
2016-04-20T15:20:23.877Z,24.54
2016-04-20T15:21:23.785Z,24.44
2016-04-20T15:22:23.929Z,24.45
2016-04-20T15:23:23.947Z,24.26
2016-04-20T15:24:23.981Z,23.97
2016-04-20T15:25:24.015Z,24.26
2016-04-20T15:26:24.033Z,24.16
2016-04-20T15:27:24.067Z,23.87
2016-04-20T15:28:24.102Z,23.87
2016-04-20T15:29:24.120Z,24.07
2016-04-20T15:30:24.154Z,23.97
2016-04-20T15:31:24.187Z,23.87
2016-04-20T15:32:24.206Z,23.87
2016-04-20T15:33:24.224Z,23.87
2016-04-20T15:34:24.258Z,24.16
2016-04-20T15:35:24.292Z,24.37
2016-04-20T15:36:24.408Z,23.59
2016-04-20T15:37:24.349Z,23.59
2016-04-20T15:38:24.367Z,23.79
2016-04-20T15:39:24.400Z,23.5
2016-04-20T15:40:24.420Z,23.4
2016-04-20T15:41:24.469Z,23.5
2016-04-20T15:42:24.488Z,23.5
2016-04-20T15:43:24.522Z,23.5
2016-04-20T15:44:24.540Z,23.59
2016-04-20T15:45:24.574Z,23.59
2016-04-20T15:46:24.608Z,23.59
2016-04-20T15:47:24.627Z,23.3
2016-04-20T15:48:24.661Z,23.3
2016-04-20T15:49:24.741Z,23.22
2016-04-20T15:50:24.744Z,23.01
2016-04-20T15:51:24.746Z,22.72
2016-04-20T15:52:24.874Z,22.72
2016-04-20T15:53:24.877Z,22.64
2016-04-20T15:54:24.832Z,23.02
2016-04-20T15:55:24.866Z,22.92
2016-04-20T15:56:24.900Z,22.83
2016-04-20T15:57:24.934Z,22.92
2016-04-20T15:58:24.989Z,22.83
2016-04-20T15:59:25.049Z,23.02
2016-04-20T16:00:25.188Z,22.74
2016-04-20T16:01:25.201Z,22.64
2016-04-20T16:02:25.260Z,22.64
2016-04-20T16:03:25.302Z,22.92
2016-04-20T16:04:25.398Z,22.92
2016-04-20T16:06:59.801Z,23.22
2016-04-20T16:07:59.816Z,22.74
2016-04-20T16:08:59.886Z,22.74
2016-04-20T16:09:59.880Z,22.74
2016-04-20T16:10:59.918Z,22.74
2016-04-20T16:11:59.943Z,22.34
2016-04-20T16:12:59.980Z,22.83
2016-04-20T16:14:00.016Z,22.72
2016-04-20T16:15:00.052Z,23.12
2016-04-20T16:16:00.073Z,22.72
2016-04-20T16:17:00.107Z,23.12
2016-04-20T16:18:00.143Z,22.63
2016-04-20T16:19:00.163Z,22.72
2016-04-20T16:20:00.197Z,22.63
2016-04-20T16:21:00.233Z,22.83
2016-04-20T16:22:00.251Z,22.63
2016-04-20T16:23:00.286Z,22.83
2016-04-20T16:24:00.320Z,22.53
2016-04-20T16:25:00.354Z,22.82
2016-04-20T16:26:00.388Z,22.72
2016-04-20T16:27:00.407Z,22.82
2016-04-20T16:28:00.425Z,22.72
2016-04-20T16:29:00.460Z,23.11
2016-04-20T16:30:00.494Z,22.64
2016-04-20T16:31:00.528Z,22.82
2016-04-20T16:32:00.546Z,22.53
2016-04-20T16:33:00.580Z,22.91
2016-04-20T16:34:00.613Z,23.01
2016-04-20T16:35:00.632Z,22.72
2016-04-20T16:36:00.666Z,22.72
2016-04-20T16:37:00.715Z,23.01
2016-04-20T16:38:00.718Z,22.82
2016-04-20T16:39:00.752Z,22.91
2016-04-20T16:40:00.787Z,22.63
2016-04-20T16:41:00.820Z,22.72
2016-04-20T16:42:00.838Z,23.11
2016-04-20T16:43:00.873Z,23.01
2016-04-20T16:44:00.890Z,23.11
2016-04-20T16:45:00.925Z,23.29
2016-04-20T16:46:00.959Z,23.19
2016-04-20T16:47:00.976Z,23.19
2016-04-20T16:48:01.011Z,23.1
2016-04-20T16:49:01.045Z,23.1
2016-04-20T16:50:01.079Z,23.29
2016-04-20T16:51:01.098Z,23.29
2016-04-20T16:52:01.131Z,23.49
2016-04-20T16:53:01.150Z,23.49
2016-04-20T16:54:01.183Z,23.58
2016-04-20T16:55:01.217Z,23.77
2016-04-20T16:56:01.251Z,23.49
2016-04-20T16:57:01.285Z,23.49
2016-04-20T16:58:01.303Z,23.38
2016-04-20T16:59:01.338Z,23.58
2016-04-20T17:00:01.356Z,23.38
2016-04-20T17:01:01.389Z,23.38
2016-04-20T17:02:01.424Z,23.58
2016-04-20T17:03:01.441Z,23.66
2016-04-20T17:04:01.476Z,23.08
2016-04-20T17:05:01.510Z,22.99
2016-04-20T17:06:01.544Z,22.89
2016-04-20T17:07:01.562Z,22.6
2016-04-20T17:08:01.596Z,23.28
2016-04-20T17:09:01.630Z,22.99
2016-04-20T17:10:01.648Z,23.28
2016-04-20T17:11:01.682Z,23.38
2016-04-20T17:12:01.701Z,23.36
2016-04-20T17:13:01.735Z,23.36
2016-04-20T17:14:01.768Z,23.85
2016-04-20T17:15:01.802Z,23.65
2016-04-20T17:16:01.821Z,23.94
2016-04-20T17:17:01.855Z,23.36
2016-04-20T17:18:01.889Z,22.69
2016-04-20T17:19:01.906Z,23.07
2016-04-20T17:20:01.940Z,23.56
2016-04-20T17:21:01.975Z,23.65
2016-04-20T17:22:01.993Z,24.13
2016-04-20T17:23:02.028Z,24.03
2016-04-20T17:24:02.061Z,23.55
2016-04-20T17:25:02.079Z,23.65
2016-04-20T17:26:02.114Z,23.54
2016-04-20T17:27:02.147Z,23.44
2016-04-20T17:28:02.165Z,23.05
2016-04-20T17:29:02.199Z,23.44
2016-04-20T17:30:02.218Z,23.54
2016-04-20T17:31:02.252Z,23.72
2016-04-20T17:32:02.269Z,23.44
2016-04-20T17:33:02.320Z,23.52
2016-04-20T17:34:02.338Z,24.1
2016-04-20T17:35:02.372Z,24.01
2016-04-20T17:36:02.391Z,24.01
2016-04-20T17:37:02.424Z,23.43
2016-04-20T17:38:02.458Z,23.62
2016-04-20T17:39:02.476Z,23.71
2016-04-20T17:40:02.510Z,23.22
2016-04-20T17:41:02.544Z,23.13
2016-04-20T17:42:02.579Z,23.51
2016-04-20T17:43:02.597Z,23.32
2016-04-20T17:44:02.646Z,22.64
2016-04-20T17:45:02.649Z,23.13
2016-04-20T17:46:02.683Z,23.03
2016-04-20T17:47:02.717Z,22.93
2016-04-20T17:48:02.720Z,23.21
2016-04-20T17:49:02.768Z,23.21
2016-04-20T17:50:02.804Z,23.11
2016-04-20T17:51:02.821Z,23.11
2016-04-20T17:52:02.840Z,23.02
2016-04-20T17:53:02.717Z,23.1
2016-04-20T17:54:03.007Z,23.1
2016-04-20T17:55:02.932Z,23.1
2016-04-20T17:56:02.950Z,23.2
2016-04-20T17:57:02.984Z,23.49
2016-04-20T17:58:03.018Z,23.39
2016-04-20T17:59:03.036Z,23.57
2016-04-20T18:00:03.070Z,23.67
2016-04-20T18:01:03.119Z,23.96
2016-04-20T18:02:03.122Z,23.96
2016-04-20T18:03:03.156Z,24.24
2016-04-20T18:04:03.236Z,24.15
2016-04-20T18:05:03.209Z,24.73
2016-04-20T18:06:03.227Z,24.71
2016-04-20T18:07:03.259Z,25.01
2016-04-20T18:08:03.277Z,25.2
2016-04-20T18:09:03.327Z,25.1
2016-04-20T18:10:03.329Z,25.01
2016-04-20T18:11:03.378Z,24.91
2016-04-20T18:12:03.414Z,25.48
2016-04-20T18:13:03.431Z,25.38
2016-04-20T18:14:03.433Z,25.38
2016-04-20T18:15:03.467Z,25.76
2016-04-20T18:16:03.502Z,25.57
2016-04-20T18:17:03.555Z,25.67
2016-04-20T18:18:03.574Z,26.05
2016-04-20T18:19:03.576Z,25.95
2016-04-20T18:20:03.609Z,26.05
2016-04-20T18:21:03.660Z,26.23
2016-04-20T18:22:03.651Z,26.23
2016-04-20T18:23:03.686Z,26.13
2016-04-20T18:24:03.720Z,26.42
2016-04-20T18:25:03.738Z,26.51
2016-04-20T18:26:03.786Z,26.81
2016-04-20T18:27:03.790Z,26.81
2016-04-20T18:28:03.824Z,26.51
2016-04-20T18:29:03.842Z,26.98
2016-04-20T18:30:03.877Z,26.98
2016-04-20T18:31:03.910Z,27.17
2016-04-20T18:32:03.944Z,27.37
2016-04-20T18:33:03.947Z,27.37
2016-04-20T18:34:03.980Z,27.56
2016-04-20T18:35:03.999Z,27.27
2016-04-20T18:36:04.033Z,27.27
2016-04-20T18:37:04.052Z,27.84
2016-04-20T18:38:04.101Z,27.75
2016-04-20T18:39:04.119Z,27.66
2016-04-20T18:40:04.154Z,27.93
2016-04-20T18:41:04.172Z,27.83
2016-04-20T18:42:04.190Z,28.41
2016-04-20T18:43:04.208Z,28.7
2016-04-20T18:44:04.257Z,28.22
2016-04-20T18:45:04.260Z,28.31
2016-04-20T18:46:04.278Z,28.7
2016-04-20T18:47:04.329Z,28.7
2016-04-20T18:48:04.346Z,28.68
2016-04-20T18:49:04.381Z,28.99
2016-04-20T18:50:04.398Z,28.88
2016-04-20T18:51:04.417Z,28.97
2016-04-20T18:52:04.450Z,28.97
2016-04-20T18:53:04.470Z,28.88
2016-04-20T18:54:04.487Z,29.16
2016-04-20T18:55:04.522Z,29.16
2016-04-20T18:56:04.540Z,28.59
2016-04-20T18:57:04.574Z,29.26
2016-04-20T18:58:04.702Z,29.55
2016-04-20T18:59:04.720Z,29.16
2016-04-20T19:00:04.722Z,29.45
2016-04-20T19:01:04.757Z,29.55
2016-04-20T19:02:04.791Z,29.74
2016-04-20T19:03:04.840Z,29.24
2016-04-20T19:04:04.843Z,29.63
2016-04-20T19:05:04.861Z,29.63
2016-04-20T19:06:04.880Z,29.91
2016-04-20T19:07:04.930Z,30.01
2016-04-20T19:08:04.962Z,29.91
2016-04-20T19:09:04.981Z,29.72
2016-04-20T19:10:04.999Z,30.3
2016-04-20T19:11:05.018Z,30.19
2016-04-20T19:12:05.051Z,30.29
2016-04-20T19:13:05.055Z,30.29
2016-04-20T19:14:05.088Z,30
2016-04-20T19:15:05.123Z,30.29
2016-04-20T19:16:05.141Z,30.47
2016-04-20T19:17:05.159Z,30.57
2016-04-20T19:18:05.176Z,30.76
2016-04-20T19:19:05.211Z,30.76
2016-04-20T19:20:05.245Z,30.67
2016-04-20T19:21:05.248Z,31.05
2016-04-20T19:22:05.313Z,31.15
2016-04-20T19:23:05.315Z,30.96
2016-04-20T19:24:05.240Z,31.15
2016-04-20T19:25:05.274Z,31.43
2016-04-20T19:26:05.292Z,31.13
2016-04-20T19:27:05.326Z,31.71
2016-04-20T19:28:05.345Z,31.71
2016-04-20T19:29:05.363Z,31.51
2016-04-20T19:30:05.397Z,31.61
2016-04-20T19:31:05.416Z,31.8
2016-04-20T19:32:05.449Z,31.51
2016-04-20T19:33:05.468Z,32.09
2016-04-20T19:34:05.486Z,32.09
2016-04-20T19:35:05.519Z,32.47
2016-04-20T19:36:05.554Z,32.57
2016-04-20T19:37:05.557Z,31.99
2016-04-20T19:38:05.590Z,32.18
2016-04-20T19:39:05.625Z,32.26
2016-04-20T19:40:05.643Z,32.38
2016-04-20T19:41:05.677Z,32.75
2016-04-20T19:42:05.696Z,32.55
2016-04-20T19:43:05.729Z,32.93
2016-04-20T19:44:05.747Z,32.75
2016-04-20T19:45:05.765Z,32.65
2016-04-20T19:46:05.815Z,33.32
2016-04-20T19:47:05.818Z,32.93
2016-04-20T19:48:05.837Z,32.84
2016-04-20T19:49:05.870Z,33.41
2016-04-20T19:50:05.873Z,33.22
2016-04-20T19:51:05.907Z,33.32
2016-04-20T19:52:05.925Z,33.22
2016-04-20T19:53:05.959Z,33.61
2016-04-20T19:54:05.992Z,33.49
2016-04-20T19:55:06.011Z,33.41
2016-04-20T19:56:06.014Z,33.59
2016-04-20T19:57:06.048Z,33.69
2016-04-20T19:58:06.081Z,33.4
2016-04-20T19:59:06.100Z,33.69
2016-04-20T20:00:06.119Z,33.78
2016-04-20T20:01:06.137Z,33.69
2016-04-20T20:02:06.155Z,33.59
2016-04-20T20:03:06.189Z,33.69
2016-04-20T20:04:06.207Z,34.36
2016-04-20T20:05:06.242Z,34.26
2016-04-20T20:06:06.275Z,34.26
2016-04-20T20:07:06.294Z,33.78
2016-04-20T20:08:06.327Z,34.06
2016-04-20T20:09:06.330Z,33.97
2016-04-20T20:10:06.363Z,34.26
2016-04-20T20:11:06.366Z,34.45
2016-04-20T20:12:06.402Z,34.74
2016-04-20T20:13:06.418Z,34.45
2016-04-20T20:14:06.452Z,34.55
2016-04-20T20:15:06.471Z,34.72
2016-04-20T20:16:06.490Z,34.81
2016-04-20T20:17:06.508Z,34.72
2016-04-20T20:18:06.573Z,34.72
2016-04-20T20:19:06.576Z,34.72
2016-04-20T20:20:06.594Z,34.81
2016-04-20T20:21:06.612Z,35.1
2016-04-20T20:22:06.640Z,34.91
2016-04-20T20:23:06.651Z,35
2016-04-20T20:24:06.670Z,35.2
2016-04-20T20:25:06.703Z,35.1
2016-04-20T20:26:06.722Z,35.1
2016-04-20T20:27:06.771Z,35
2016-04-20T20:28:06.775Z,35.29
2016-04-20T20:29:06.792Z,35
2016-04-20T20:30:06.826Z,35.1
2016-04-20T20:31:06.845Z,35.49
2016-04-20T20:32:06.863Z,35.29
2016-04-20T20:33:06.881Z,35.29
2016-04-20T20:34:06.915Z,35.28
2016-04-20T20:35:06.933Z,35.37
2016-04-20T20:36:06.968Z,35.57
2016-04-20T20:37:06.970Z,35.75
2016-04-20T20:38:07.005Z,35.66
2016-04-20T20:39:07.022Z,36.14
2016-04-20T20:40:07.040Z,36.33
2016-04-20T20:41:07.074Z,35.94
2016-04-20T20:42:07.093Z,36.14
2016-04-20T20:43:07.111Z,36.04
2016-04-20T20:44:07.145Z,36.33
2016-04-20T20:45:07.163Z,35.94
2016-04-20T20:46:07.181Z,36.33
2016-04-20T20:47:07.201Z,36.52
2016-04-20T20:48:07.234Z,35.66
2016-04-20T20:49:07.267Z,36.61
2016-04-20T20:50:07.271Z,36.61
2016-04-20T20:51:07.304Z,36.61
2016-04-20T20:52:07.338Z,36.61
2016-04-20T20:53:07.341Z,36.61
2016-04-20T20:54:07.360Z,36.43
2016-04-20T20:55:07.394Z,36.71
2016-04-20T20:56:07.412Z,36.88
2016-04-20T20:57:07.430Z,36.98
2016-04-20T20:58:07.448Z,37.07
2016-04-20T20:59:07.482Z,37.26
2016-04-20T21:00:07.501Z,37.36
2016-04-20T21:01:07.519Z,37.26
2016-04-20T21:02:07.538Z,37.36
2016-04-20T21:03:07.556Z,37.26
2016-04-20T21:04:07.591Z,37.55
2016-04-20T21:05:07.609Z,37.84
2016-04-20T21:06:07.628Z,37.65
2016-04-20T21:07:07.645Z,37.46
2016-04-20T21:08:07.679Z,37.36
2016-04-20T21:09:07.697Z,37.36
2016-04-20T21:10:07.731Z,37.36
2016-04-20T21:11:07.751Z,37.74
2016-04-20T21:12:07.768Z,37.93
2016-04-20T21:13:07.802Z,37.93
2016-04-20T21:14:07.805Z,37.84
2016-04-20T21:15:07.823Z,38.03
2016-04-20T21:16:07.858Z,38.03
2016-04-20T21:17:07.875Z,38.22
2016-04-20T21:18:07.894Z,38.22
2016-04-20T21:19:07.913Z,38.03
2016-04-20T21:20:07.946Z,38.12
2016-04-20T21:21:07.964Z,38.32
2016-04-20T21:22:07.982Z,38.39
2016-04-20T21:23:07.282Z,38.3
2016-04-20T21:24:08.035Z,38.39
2016-04-20T21:25:08.069Z,38.49
2016-04-20T21:26:08.071Z,38.49